Time;durP1;ratioP1;P1;durP2;ratioP2;P2;SDS_P1;SDS_P2;PMS_P1;PMS_P2;Temp;Humidity;BMP_temperature;BMP_pressure;BME280_temperature;BME280_humidity;BME280_pressure;Samples;Min_cycle;Max_cycle;Signal;HPM_P1;HPM_P2
2022/01/25 00:08:45;;;;;;;77.68;38.42;;;;;;;4.64;59.73;101440.34;5026240;28;20749;-76
2022/01/25 00:25:10;;;;;;;68.90;34.95;;;;;;;4.58;60.18;101425.66;5013219;28;20529;-77
2022/01/25 00:27:47;;;;;;;71.70;34.40;;;;;;;4.59;60.36;101424.78;5030227;28;20080;-77
2022/01/25 00:30:31;;;;;;;60.60;32.00;;;;;;;4.55;60.37;101430.13;5027083;28;20063;-76
2022/01/25 00:33:00;;;;;;;70.57;33.10;;;;;;;4.55;60.47;101425.75;5029285;28;20049;-77
2022/01/25 00:35:27;;;;;;;65.65;31.88;;;;;;;4.57;60.46;101430.94;5012080;28;20046;-75
2022/01/25 00:37:55;;;;;;;69.43;31.30;;;;;;;4.60;60.56;101418.63;5028388;28;20045;-74
2022/01/25 00:40:22;;;;;;;59.45;30.45;;;;;;;4.63;60.48;101415.09;5028480;28;20073;-75
2022/01/25 00:42:49;;;;;;;69.38;31.35;;;;;;;4.60;60.57;101407.31;5028139;28;20049;-77
2022/01/25 00:45:19;;;;;;;67.72;34.33;;;;;;;4.59;61.00;101408.19;5028670;28;20045;-79
2022/01/25 00:47:48;;;;;;;66.32;29.50;;;;;;;4.64;60.83;101413.31;5029137;28;20084;-75
2022/01/25 00:50:16;;;;;;;64.78;31.55;;;;;;;4.67;60.80;101405.38;5027961;28;20041;-76
2022/01/25 00:55:31;;;;;;;;;;;;;;;4.98;60.02;101393.06;5029839;28;20134;-78
2022/01/25 00:57:59;;;;;;;47.80;23.55;;;;;;;4.81;60.24;101395.34;5029542;28;19928;-78
2022/01/25 01:00:26;;;;;;;58.20;27.35;;;;;;;4.75;60.64;101393.78;5027515;28;20084;-79
2022/01/25 01:02:55;;;;;;;59.22;28.83;;;;;;;4.73;60.72;101382.47;5029786;28;20625;-73
2022/01/25 01:05:24;;;;;;;62.15;27.85;;;;;;;4.74;60.79;101384.22;5029630;28;20050;-76
2022/01/25 01:07:53;;;;;;;56.15;26.27;;;;;;;4.76;60.92;101371.09;5030031;28;20472;-75
2022/01/25 01:10:22;;;;;;;59.03;27.42;;;;;;;4.73;60.98;101369.41;5035877;28;20102;-75
2022/01/25 01:13:21;;;;;;;59.33;27.75;;;;;;;4.73;61.06;101356.31;5033146;28;20187;-77
2022/01/25 01:15:56;;;;;;;50.92;25.10;;;;;;;4.74;61.04;101360.66;5030353;28;20041;-73
2022/01/25 01:29:43;;;;;;;60.17;26.02;;;;;;;4.77;61.29;101344.88;5030596;28;20056;-78
2022/01/25 01:32:27;;;;;;;63.72;28.42;;;;;;;4.76;61.17;101345.75;5027129;28;20081;-75
2022/01/25 01:35:27;;;;;;;58.47;25.33;;;;;;;4.78;61.24;101349.19;5027359;28;20085;-75
2022/01/25 01:38:12;;;;;;;68.40;30.40;;;;;;;4.77;61.18;101351.84;5039154;28;20041;-76
2022/01/25 01:41:02;;;;;;;65.85;27.58;;;;;;;4.79;61.22;101350.91;5037040;28;20563;-77
2022/01/25 01:43:32;;;;;;;63.75;30.20;;;;;;;4.77;60.97;101354.47;5039090;28;20099;-78
2022/01/25 01:46:21;;;;;;;61.97;26.88;;;;;;;4.77;61.50;101357.94;5040414;28;20057;-75
2022/01/25 01:48:55;;;;;;;81.40;40.67;;;;;;;4.77;61.82;101354.47;5019637;28;20048;-75
2022/01/25 01:51:28;;;;;;;80.10;36.05;;;;;;;4.72;62.27;101359.84;5031690;28;20103;-74
2022/01/25 01:53:56;;;;;;;63.83;28.70;;;;;;;4.74;62.17;101347.56;5027871;28;20049;-74
2022/01/25 01:56:23;;;;;;;58.92;26.23;;;;;;;4.83;61.93;101337.72;5028310;28;20063;-75
2022/01/25 01:58:54;;;;;;;52.58;26.40;;;;;;;4.90;61.78;101337.47;5029473;28;20053;-76
2022/01/25 02:01:25;;;;;;;59.05;25.38;;;;;;;4.96;61.63;101337.28;5026987;28;20057;-78
2022/01/25 02:03:53;;;;;;;63.15;27.52;;;;;;;5.00;61.72;101332.81;5027748;28;20681;-75
2022/01/25 02:06:21;;;;;;;67.72;31.75;;;;;;;4.97;61.81;101333.75;4978267;28;20045;-79
2022/01/25 02:08:49;;;;;;;51.70;27.48;;;;;;;4.97;61.78;101333.75;5028058;28;20065;-77
2022/01/25 02:11:17;;;;;;;55.25;28.35;;;;;;;5.02;61.79;101338.84;5029203;28;20524;-75
2022/01/25 02:13:45;;;;;;;63.75;28.35;;;;;;;5.07;61.46;101343.94;5010909;28;20103;-77
2022/01/25 02:16:20;;;;;;;70.40;32.28;;;;;;;5.09;61.52;101340.34;5010091;28;20061;-74
2022/01/25 02:24:33;;;;;;;63.25;29.05;;;;;;;5.06;61.68;101321.28;4961559;28;20058;-75
2022/01/25 02:27:01;;;;;;;63.42;28.58;;;;;;;5.02;61.79;101319.66;4986394;28;20113;-78
2022/01/25 02:29:29;;;;;;;70.05;27.85;;;;;;;4.98;61.97;101321.53;4986369;28;20136;-78
2022/01/25 02:31:57;;;;;;;71.90;29.45;;;;;;;4.90;62.30;101321.78;4968202;28;20050;-79
2022/01/25 02:34:25;;;;;;;72.50;33.60;;;;;;;4.88;62.64;101322.72;4971240;28;20178;-75
2022/01/25 02:36:58;;;;;;;58.45;28.20;;;;;;;4.86;62.88;101319.28;4985507;28;20153;-76
2022/01/25 02:39:25;;;;;;;62.00;27.65;;;;;;;4.87;62.85;101321.88;5005435;28;20074;-77
2022/01/25 02:41:52;;;;;;;56.45;24.70;;;;;;;4.92;62.66;101316.50;5005770;28;20078;-76
2022/01/25 02:44:26;;;;;;;56.08;27.33;;;;;;;4.90;62.73;101307.84;5004416;28;20807;-79
2022/01/25 02:49:38;;;;;;;73.13;36.57;;;;;;;4.95;62.59;101303.28;5008064;28;20275;-77
2022/01/25 02:52:07;;;;;;;54.30;25.48;;;;;;;4.84;62.86;101290.53;5006384;28;20074;-76
2022/01/25 02:54:35;;;;;;;58.13;25.83;;;;;;;4.85;63.06;101289.66;5006717;28;20149;-76
2022/01/25 02:57:03;;;;;;;53.92;20.80;;;;;;;4.89;62.73;101287.78;5003304;28;20152;-80
2022/01/25 02:59:30;;;;;;;53.15;25.70;;;;;;;4.90;62.65;101289.50;5040258;28;20520;-80
2022/01/25 03:01:57;;;;;;;49.38;23.00;;;;;;;4.87;62.86;101279.13;5046475;28;20056;-77
2022/01/25 03:04:25;;;;;;;54.55;24.67;;;;;;;4.86;63.00;101285.25;5038212;28;20448;-76
2022/01/25 03:06:52;;;;;;;58.55;27.25;;;;;;;4.81;63.27;101292.41;5012313;28;20413;-75
2022/01/25 03:09:20;;;;;;;55.53;23.95;;;;;;;4.75;63.61;101294.34;5029887;28;20678;-77
2022/01/25 03:11:51;;;;;;;58.08;25.17;;;;;;;4.73;63.72;101280.41;5031035;28;20458;-78
2022/01/25 03:14:20;;;;;;;55.80;24.30;;;;;;;4.75;63.73;101283.00;5029970;28;20456;-77
2022/01/25 03:16:48;;;;;;;58.15;21.63;;;;;;;4.80;63.52;101281.09;5033707;28;20060;-75
2022/01/25 03:19:45;;;;;;;48.35;23.23;;;;;;;4.78;63.57;101278.50;5028745;28;20052;-78
2022/01/25 03:22:17;;;;;;;;;;;;;;;5.07;62.77;101274.09;5030515;28;20065;-75
2022/01/25 03:24:47;;;;;;;51.72;22.08;;;;;;;4.87;63.12;101277.38;5029388;28;19928;-77
2022/01/25 03:27:14;;;;;;;43.08;20.80;;;;;;;4.85;63.21;101270.47;5028631;28;20549;-77
2022/01/25 03:29:41;;;;;;;55.53;24.95;;;;;;;4.86;63.09;101270.44;5028365;28;20063;-76
2022/01/25 03:32:08;;;;;;;55.05;25.95;;;;;;;4.84;63.28;101280.06;5027312;28;20056;-75
2022/01/25 03:34:35;;;;;;;57.83;24.23;;;;;;;4.87;63.14;101279.97;5027527;28;20108;-74
2022/01/25 03:37:03;;;;;;;44.42;20.45;;;;;;;4.92;63.08;101277.22;5027714;28;20056;-77
2022/01/25 03:39:30;;;;;;;45.88;21.75;;;;;;;4.91;63.06;101281.59;5027493;28;20063;-75
2022/01/25 03:41:58;;;;;;;48.25;20.58;;;;;;;4.91;63.10;101272.88;5026160;28;20502;-74
2022/01/25 03:44:25;;;;;;;49.42;21.13;;;;;;;4.93;63.13;101265.84;5027167;28;20421;-76
2022/01/25 03:47:03;;;;;;;50.13;23.27;;;;;;;4.92;63.10;101259.75;5025888;28;20041;-76
2022/01/25 03:52:16;;;;;;;51.55;23.42;;;;;;;4.84;63.32;101253.03;5027028;28;20172;-76
2022/01/25 03:54:43;;;;;;;57.67;28.70;;;;;;;4.78;63.56;101252.34;5025411;28;20277;-73
2022/01/25 03:57:11;;;;;;;61.15;29.70;;;;;;;4.79;63.53;101250.59;5025776;28;20054;-75
2022/01/25 03:59:38;;;;;;;48.40;22.80;;;;;;;4.75;63.57;101239.38;5030154;28;20105;-75
2022/01/25 04:02:05;;;;;;;54.92;23.30;;;;;;;4.69;63.73;101236.09;5028755;28;20482;-77
2022/01/25 04:04:34;;;;;;;54.58;24.50;;;;;;;4.62;64.01;101240.66;5030074;28;20089;-73
2022/01/25 04:07:08;;;;;;;53.50;23.65;;;;;;;4.53;64.08;101241.78;5030765;28;20129;-75
2022/01/25 04:09:35;;;;;;;49.75;25.40;;;;;;;4.48;64.08;101235.84;5029867;28;20048;-73
2022/01/25 04:12:03;;;;;;;52.45;25.50;;;;;;;4.43;64.27;101227.31;5030480;28;20144;-77
2022/01/25 04:14:31;;;;;;;48.35;23.63;;;;;;;4.40;64.24;101232.63;5030679;28;20088;-75
2022/01/25 04:17:02;;;;;;;60.20;26.80;;;;;;;4.28;64.51;101226.00;5031102;28;20100;-76
2022/01/25 04:19:34;;;;;;;56.97;23.17;;;;;;;4.26;64.39;101227.81;5030351;28;20073;-73
2022/01/25 04:25:06;;;;;;;72.72;34.40;;;;;;;4.19;64.69;101228.91;5030457;28;20168;-72
2022/01/25 04:27:35;;;;;;;58.05;27.25;;;;;;;4.14;64.95;101222.97;5012824;28;20124;-75
2022/01/25 04:30:06;;;;;;;64.05;32.55;;;;;;;4.11;65.28;101213.47;5031396;28;20128;-74
2022/01/25 04:32:41;;;;;;;53.70;23.67;;;;;;;4.15;65.14;101203.75;5031282;28;20052;-71
2022/01/25 04:35:13;;;;;;;61.72;33.25;;;;;;;4.16;65.12;101198.50;5032091;28;20561;-74
2022/01/25 04:49:04;;;;;;;45.97;23.05;;;;;;;4.22;65.72;101184.38;5039587;28;20172;-75
2022/01/25 04:54:33;;;;;;;58.58;33.15;;;;;;;4.25;65.81;101183.41;5000282;28;20070;-74
2022/01/25 04:57:13;;;;;;;61.67;27.10;;;;;;;4.25;65.73;101184.28;5000091;28;20108;-75
2022/01/25 04:59:47;;;;;;;63.85;30.95;;;;;;;4.17;66.37;101186.25;4997177;28;20474;-76
2022/01/25 05:02:20;;;;;;;73.18;40.70;;;;;;;4.11;66.63;101174.25;4996825;28;20285;-72
2022/01/25 05:04:52;;;;;;;61.60;29.45;;;;;;;4.07;66.89;101174.38;5000005;28;20046;-74
2022/01/25 05:07:30;;;;;;;63.17;31.00;;;;;;;4.09;67.01;101169.94;5000301;28;20213;-76
2022/01/25 05:09:59;;;;;;;56.78;25.33;;;;;;;4.10;67.01;101175.13;5007349;28;20045;-75
2022/01/25 05:12:37;;;;;;;47.25;20.05;;;;;;;4.20;66.74;101173.09;5009281;28;20042;-76
2022/01/25 05:15:19;;;;;;;52.55;24.70;;;;;;;4.20;66.67;101173.09;5008740;28;20053;-77
2022/01/25 05:18:01;;;;;;;70.20;31.25;;;;;;;4.19;66.76;101171.38;4995079;28;20031;-76
2022/01/25 05:23:13;;;;;;;64.80;32.47;;;;;;;4.25;66.42;101184.28;5009675;28;20124;-75
2022/01/25 05:25:40;;;;;;;70.60;33.58;;;;;;;4.19;66.73;101177.47;5009444;28;20065;-72
2022/01/25 05:28:07;;;;;;;66.28;34.88;;;;;;;4.13;66.88;101171.59;5010482;28;20054;-77
2022/01/25 05:30:34;;;;;;;70.93;30.10;;;;;;;4.24;66.75;101169.47;5025114;28;20061;-78
2022/01/25 05:33:03;;;;;;;63.33;28.63;;;;;;;4.31;66.48;101176.22;5047031;28;20522;-75
2022/01/25 05:35:30;;;;;;;76.57;35.78;;;;;;;4.20;66.86;101181.81;5034969;28;20125;-73
2022/01/25 05:37:58;;;;;;;65.95;30.70;;;;;;;4.19;67.05;101182.69;5031470;28;20122;-72
2022/01/25 05:40:41;;;;;;;72.90;30.73;;;;;;;4.23;66.83;101180.84;5028172;28;20095;-78
2022/01/25 05:46:11;;;;;;;66.28;30.98;;;;;;;4.25;66.84;101176.44;5025565;28;20123;-72
2022/01/25 05:48:39;;;;;;;81.22;39.55;;;;;;;4.28;66.90;101176.31;5029626;28;20405;-78
2022/01/25 05:51:07;;;;;;;73.53;34.00;;;;;;;4.26;67.00;101172.91;5068298;28;20041;-76
2022/01/25 05:53:34;;;;;;;72.97;35.25;;;;;;;4.32;66.87;101166.63;5057546;28;20037;-78
2022/01/25 05:56:02;;;;;;;75.00;34.20;;;;;;;4.26;67.09;101167.66;5050780;28;20034;-74
2022/01/25 05:58:29;;;;;;;67.82;32.88;;;;;;;4.29;66.99;101164.97;5049725;28;20106;-80
2022/01/25 06:00:59;;;;;;;63.08;34.28;;;;;;;4.29;67.14;101162.34;5050311;28;20064;-75
2022/01/25 06:03:27;;;;;;;64.00;32.70;;;;;;;4.31;67.14;101160.53;5023825;28;20057;-75
2022/01/25 06:05:57;;;;;;;48.50;24.05;;;;;;;4.32;67.14;101161.38;5040729;28;20056;-79
2022/01/25 06:08:25;;;;;;;68.03;31.10;;;;;;;4.31;67.08;101160.53;5037186;28;20131;-74
2022/01/25 06:10:52;;;;;;;57.47;31.13;;;;;;;4.29;67.17;101167.59;5016821;28;20553;-78
2022/01/25 06:13:19;;;;;;;55.35;27.73;;;;;;;4.33;67.17;101163.09;5033818;28;20050;-73
2022/01/25 06:15:46;;;;;;;54.63;29.85;;;;;;;4.29;67.21;101156.28;5017885;28;20056;-79
2022/01/25 06:18:13;;;;;;;57.13;29.10;;;;;;;4.26;67.29;101167.66;5034964;28;20629;-76
2022/01/25 06:20:40;;;;;;;57.95;28.60;;;;;;;4.33;67.19;101157.88;5037291;28;20109;-80
2022/01/25 06:23:09;;;;;;;55.15;32.97;;;;;;;4.37;66.81;101155.09;5044740;28;20154;-80
2022/01/25 06:25:36;;;;;;;58.55;28.48;;;;;;;4.30;66.98;101150.97;5045408;28;20038;-80
2022/01/25 06:28:03;;;;;;;49.45;26.05;;;;;;;4.29;67.13;101149.28;5046639;28;20128;-81
2022/01/25 06:30:31;;;;;;;60.38;34.67;;;;;;;4.24;67.08;101152.94;5039794;28;20139;-78
2022/01/25 06:32:59;;;;;;;45.78;27.33;;;;;;;4.20;67.35;101158.25;5039374;28;20124;-79
2022/01/25 06:35:28;;;;;;;56.67;30.55;;;;;;;4.15;67.35;101152.31;5031041;28;20080;-81
2022/01/25 06:37:55;;;;;;;52.13;33.10;;;;;;;4.11;67.33;101160.31;5031581;28;20092;-81
2022/01/25 06:40:25;;;;;;;50.88;27.35;;;;;;;4.17;67.34;101157.50;5030051;28;20538;-81
2022/01/25 06:42:56;;;;;;;50.70;28.83;;;;;;;4.22;66.97;101145.16;5029150;28;20125;-76
2022/01/25 06:45:26;;;;;;;52.92;30.15;;;;;;;4.18;67.26;101152.22;5028073;28;20053;-79
2022/01/25 06:47:53;;;;;;;54.13;28.77;;;;;;;4.16;67.60;101153.16;5029390;28;20057;-75
2022/01/25 06:50:23;;;;;;;56.00;31.35;;;;;;;4.12;67.60;101151.56;5028607;28;20045;-78
2022/01/25 06:52:51;;;;;;;46.90;26.85;;;;;;;4.12;67.54;101154.19;5027120;28;20124;-79
2022/01/25 06:55:19;;;;;;;54.13;31.25;;;;;;;4.07;67.70;101156.94;5026526;28;20071;-77
2022/01/25 06:57:51;;;;;;;49.88;28.92;;;;;;;4.09;67.85;101159.50;5027616;28;20048;-80
2022/01/25 07:00:21;;;;;;;47.83;29.20;;;;;;;4.10;67.76;101150.75;5028079;28;20429;-76
2022/01/25 07:02:48;;;;;;;49.72;28.38;;;;;;;4.08;67.71;101148.19;5029504;28;20053;-80
2022/01/25 07:05:15;;;;;;;49.15;27.42;;;;;;;4.10;67.66;101146.38;5028716;28;20120;-75
2022/01/25 07:07:43;;;;;;;37.00;18.17;;;;;;;4.21;67.51;101139.06;5026711;28;20056;-74
2022/01/25 07:10:11;;;;;;;50.00;26.50;;;;;;;4.18;67.62;101139.16;5027057;28;20179;-76
2022/01/25 07:12:38;;;;;;;45.40;23.42;;;;;;;4.17;67.64;101132.19;5027651;28;20045;-80
2022/01/25 07:15:07;;;;;;;37.72;23.92;;;;;;;4.25;67.44;101139.81;5026000;28;20049;-75
2022/01/25 07:17:34;;;;;;;52.90;31.90;;;;;;;4.19;67.32;101140.84;5027538;28;20581;-80
2022/01/25 07:20:04;;;;;;;28.05;15.85;;;;;;;4.31;67.21;101144.84;5026726;28;20046;-78
2022/01/25 07:22:31;;;;;;;47.80;25.05;;;;;;;4.38;66.97;101151.59;5026103;28;20053;-78
2022/01/25 07:24:58;;;;;;;46.05;25.98;;;;;;;4.33;67.11;101145.66;5025416;28;20064;-80
2022/01/25 07:27:25;;;;;;;44.38;26.52;;;;;;;4.27;67.31;101138.00;5026462;28;20132;-74
2022/01/25 07:29:51;;;;;;;40.75;21.60;;;;;;;4.31;67.31;101142.22;5025978;28;20100;-77
2022/01/25 07:32:20;;;;;;;43.60;26.60;;;;;;;4.30;67.44;101144.91;5026260;28;20049;-81
2022/01/25 07:34:47;;;;;;;45.53;27.85;;;;;;;4.31;67.30;101142.22;5030494;28;20128;-76
2022/01/25 07:37:15;;;;;;;51.10;31.38;;;;;;;4.24;67.71;101140.72;5028493;28;20409;-76
2022/01/25 07:39:44;;;;;;;45.35;23.17;;;;;;;4.26;67.80;101149.38;5031811;28;20073;-79
2022/01/25 07:42:16;;;;;;;45.78;26.13;;;;;;;4.32;67.49;101157.03;5028281;28;20085;-79
2022/01/25 07:44:44;;;;;;;47.92;35.75;;;;;;;4.29;67.37;101140.59;5029352;28;20107;-79
2022/01/25 07:47:11;;;;;;;47.40;29.85;;;;;;;4.22;67.69;101132.91;5030514;28;20697;-78
2022/01/25 07:49:40;;;;;;;46.00;32.13;;;;;;;4.22;67.73;101134.69;5029140;28;20227;-74
2022/01/25 07:52:08;;;;;;;46.35;30.33;;;;;;;4.21;67.72;101132.97;5029722;28;20108;-78
2022/01/25 07:54:35;;;;;;;48.92;34.13;;;;;;;4.17;67.87;101133.97;5030071;28;20641;-79
2022/01/25 07:57:02;;;;;;;46.60;25.85;;;;;;;4.21;67.99;101133.84;5027055;28;20145;-78
2022/01/25 07:59:29;;;;;;;48.72;32.47;;;;;;;4.22;67.69;101119.84;5027662;28;20073;-74
2022/01/25 08:01:57;;;;;;;48.58;28.40;;;;;;;4.28;67.72;101108.31;5028349;28;20046;-80
2022/01/25 08:04:24;;;;;;;55.65;37.35;;;;;;;4.44;67.45;101123.53;5029564;28;20065;-80
2022/01/25 08:06:53;;;;;;;38.15;26.95;;;;;;;4.36;67.38;101113.31;5028448;28;20077;-79
2022/01/25 08:09:23;;;;;;;42.63;29.13;;;;;;;4.30;67.67;101116.13;5029042;28;20084;-80
2022/01/25 08:11:50;;;;;;;49.15;26.73;;;;;;;4.35;67.55;101104.59;5029888;28;20049;-78
2022/01/25 08:14:18;;;;;;;50.17;34.03;;;;;;;4.31;67.49;101103.00;5029189;28;20100;-79
2022/01/25 08:16:48;;;;;;;45.55;30.48;;;;;;;4.30;67.55;101100.44;5032341;28;20049;-74
2022/01/25 08:19:17;;;;;;;40.17;25.90;;;;;;;4.30;67.65;101111.75;5028201;28;20071;-78
2022/01/25 08:21:48;;;;;;;39.58;26.10;;;;;;;4.29;67.56;101104.81;5030440;28;20128;-78
2022/01/25 08:24:19;;;;;;;42.92;29.67;;;;;;;4.28;67.84;101102.25;5030466;28;20076;-76
2022/01/25 08:26:47;;;;;;;47.40;29.48;;;;;;;4.27;67.80;101105.75;5026906;28;20049;-79
2022/01/25 08:29:15;;;;;;;43.60;28.25;;;;;;;4.31;67.51;101096.94;5027288;28;20155;-74
2022/01/25 08:31:42;;;;;;;41.42;24.02;;;;;;;4.34;67.40;101105.53;5030555;28;20128;-77
2022/01/25 08:34:11;;;;;;;34.50;20.98;;;;;;;4.36;67.50;101098.47;5031143;28;20041;-74
2022/01/25 08:36:39;;;;;;;40.20;27.23;;;;;;;4.35;67.47;101090.69;5029399;28;20527;-76
2022/01/25 08:39:08;;;;;;;44.35;27.42;;;;;;;4.38;67.48;101095.81;5029948;28;20057;-79
2022/01/25 08:41:37;;;;;;;40.13;27.88;;;;;;;4.46;67.23;101095.56;5029210;28;20141;-74
2022/01/25 08:44:05;;;;;;;38.25;25.33;;;;;;;4.52;67.09;101100.56;5027897;28;20049;-73
2022/01/25 08:46:33;;;;;;;40.35;28.58;;;;;;;4.48;67.05;101078.88;5027208;28;20046;-73
2022/01/25 08:49:02;;;;;;;42.53;27.77;;;;;;;4.47;67.10;101090.28;5030457;28;20129;-72
2022/01/25 08:51:29;;;;;;;38.55;26.17;;;;;;;4.48;67.13;101085.88;5032133;28;20055;-80
2022/01/25 08:53:59;;;;;;;37.45;24.52;;;;;;;4.50;67.09;101086.69;5029891;28;20166;-79
2022/01/25 08:56:26;;;;;;;37.55;20.38;;;;;;;4.56;67.15;101083.88;5037409;28;20046;-75
2022/01/25 08:58:55;;;;;;;42.88;26.08;;;;;;;4.52;67.05;101083.13;5034104;28;20056;-79
2022/01/25 09:01:22;;;;;;;39.80;26.63;;;;;;;4.51;67.04;101077.94;5029200;28;20045;-80
2022/01/25 09:03:49;;;;;;;47.05;26.52;;;;;;;4.56;66.81;101086.50;5031146;28;20120;-78
2022/01/25 09:06:17;;;;;;;43.83;30.77;;;;;;;4.53;67.19;101086.59;5031145;28;20133;-75
2022/01/25 09:08:44;;;;;;;36.40;23.17;;;;;;;4.64;66.94;101081.84;5028718;28;20121;-81
2022/01/25 09:11:12;;;;;;;38.67;24.70;;;;;;;4.59;66.65;101081.13;5027289;28;20129;-77
2022/01/25 09:13:40;;;;;;;35.67;21.23;;;;;;;4.64;66.84;101079.22;5029976;28;20037;-81
2022/01/25 09:16:11;;;;;;;40.72;25.95;;;;;;;4.72;66.56;101077.22;5029193;28;20221;-74
2022/01/25 09:18:38;;;;;;;41.60;27.60;;;;;;;4.65;66.50;101080.94;5031923;28;20092;-79
2022/01/25 09:21:05;;;;;;;42.28;26.50;;;;;;;4.60;66.69;101073.25;5030039;28;20064;-75
2022/01/25 09:23:32;;;;;;;41.45;28.63;;;;;;;4.65;66.60;101067.03;5028175;28;20473;-78
2022/01/25 09:25:59;;;;;;;41.33;28.60;;;;;;;4.64;66.72;101070.53;5028761;28;20053;-78
2022/01/25 09:28:26;;;;;;;41.72;26.80;;;;;;;4.62;66.65;101075.81;5045030;28;20068;-80
2022/01/25 09:30:53;;;;;;;40.25;26.48;;;;;;;4.62;66.82;101064.50;5042662;28;20041;-78
2022/01/25 09:33:22;;;;;;;40.20;23.80;;;;;;;4.67;66.77;101062.56;5035601;28;20073;-77
2022/01/25 09:35:50;;;;;;;39.13;23.65;;;;;;;4.76;66.56;101060.47;5038464;28;20069;-72
2022/01/25 09:38:18;;;;;;;39.95;31.08;;;;;;;4.67;66.60;101052.97;5031849;28;20037;-80
2022/01/25 09:40:46;;;;;;;43.45;28.98;;;;;;;4.67;66.53;101047.72;5032597;28;20053;-79
2022/01/25 09:43:13;;;;;;;35.60;20.63;;;;;;;4.74;66.71;101054.44;5031984;28;20056;-75
2022/01/25 09:45:41;;;;;;;44.70;30.23;;;;;;;4.80;66.40;101053.38;5035557;28;20436;-80
2022/01/25 09:48:10;;;;;;;36.83;22.02;;;;;;;4.78;66.59;101057.81;5029144;28;20072;-78
2022/01/25 09:50:39;;;;;;;41.35;25.40;;;;;;;4.81;66.40;101059.44;5028613;28;20133;-74
2022/01/25 09:53:07;;;;;;;42.88;28.73;;;;;;;4.79;66.29;101054.31;5027020;28;20609;-73
2022/01/25 09:55:39;;;;;;;34.97;20.95;;;;;;;4.86;66.51;101057.53;5027304;28;20057;-77
2022/01/25 09:58:07;;;;;;;42.97;27.00;;;;;;;4.86;66.18;101052.28;5026019;28;20049;-75
2022/01/25 10:00:35;;;;;;;46.58;29.45;;;;;;;4.82;66.48;101050.72;5026722;28;20141;-79
2022/01/25 10:03:09;;;;;;;57.05;32.97;;;;;;;4.75;66.65;101056.16;5027206;28;20049;-79
2022/01/25 10:05:42;;;;;;;43.92;21.38;;;;;;;5.01;66.26;101059.63;5025564;28;20107;-73
2022/01/25 10:08:11;;;;;;;44.72;29.45;;;;;;;4.92;66.23;101057.34;5024896;28;20069;-74
2022/01/25 10:10:41;;;;;;;51.13;35.50;;;;;;;4.76;66.75;101051.78;5027314;28;20095;-75
2022/01/25 10:13:15;;;;;;;47.17;32.63;;;;;;;4.74;66.75;101054.44;5026004;28;20137;-75
2022/01/25 10:15:43;;;;;;;47.40;33.92;;;;;;;4.74;66.84;101059.69;5029491;28;20049;-80
2022/01/25 10:18:12;;;;;;;46.08;30.85;;;;;;;4.73;66.85;101057.97;5028861;28;20720;-78
2022/01/25 10:20:43;;;;;;;50.38;32.10;;;;;;;4.71;67.17;101058.94;5026708;28;20049;-76
2022/01/25 10:23:12;;;;;;;50.53;30.73;;;;;;;4.69;67.49;101059.00;5024276;28;20041;-78
2022/01/25 10:25:43;;;;;;;52.13;30.52;;;;;;;4.72;67.32;101061.50;5027542;28;20109;-78
2022/01/25 10:28:14;;;;;;;61.72;36.33;;;;;;;4.69;67.56;101055.53;5030448;28;20133;-71
2022/01/25 10:30:49;;;;;;;50.45;31.42;;;;;;;4.66;67.58;101051.22;5026222;28;20057;-76
2022/01/25 10:33:19;;;;;;;47.33;34.72;;;;;;;4.63;67.50;101040.91;5028122;28;20486;-82
2022/01/25 10:35:48;;;;;;;55.47;31.88;;;;;;;4.61;67.76;101055.81;5026578;28;20064;-81
2022/01/25 10:38:23;;;;;;;57.08;32.85;;;;;;;4.68;67.86;101049.44;5025997;28;20153;-81
2022/01/25 10:40:59;;;;;;;54.13;36.72;;;;;;;4.68;67.96;101051.19;5025963;28;20125;-76
2022/01/25 10:43:27;;;;;;;54.88;38.70;;;;;;;4.61;68.16;101061.03;5026030;28;20128;-74
2022/01/25 10:46:15;;;;;;;51.40;31.40;;;;;;;4.64;68.31;101060.91;5026902;28;20053;-80
2022/01/25 10:48:45;;;;;;;53.03;33.05;;;;;;;4.69;68.19;101052.91;5028221;28;20125;-79
2022/01/25 10:51:16;;;;;;;56.17;33.03;;;;;;;4.71;68.30;101057.16;5024907;28;20572;-72
2022/01/25 10:53:43;;;;;;;52.15;31.73;;;;;;;4.69;68.36;101056.38;5026601;28;20081;-80
2022/01/25 10:56:12;;;;;;;62.00;36.20;;;;;;;4.72;68.51;101064.13;5026348;28;20180;-77
2022/01/25 10:58:42;;;;;;;59.60;31.45;;;;;;;4.87;68.15;101054.88;5024051;28;20267;-78
2022/01/25 11:01:11;;;;;;;62.72;39.72;;;;;;;4.82;68.35;101048.94;5024982;28;20081;-74
2022/01/25 11:03:41;;;;;;;73.57;48.10;;;;;;;4.87;68.34;101044.41;5024386;28;20057;-79
2022/01/25 11:06:11;;;;;;;67.85;41.05;;;;;;;4.84;68.41;101041.03;5024949;28;20042;-76
2022/01/25 11:08:41;;;;;;;55.95;35.10;;;;;;;4.85;68.28;101034.91;5026453;28;20045;-77
2022/01/25 11:11:10;;;;;;;61.45;38.53;;;;;;;4.79;68.37;101034.22;5024974;28;20057;-74
2022/01/25 11:13:47;;;;;;;56.22;29.90;;;;;;;4.83;68.49;101034.94;5026122;28;20053;-74
2022/01/25 11:16:14;;;;;;;55.80;34.05;;;;;;;4.86;68.49;101032.22;5026135;28;20046;-81
2022/01/25 11:18:41;;;;;;;69.18;42.47;;;;;;;4.82;68.53;101028.00;5026187;28;20045;-77
2022/01/25 11:21:11;;;;;;;81.65;46.08;;;;;;;4.83;68.56;101026.25;5026313;28;20056;-72
2022/01/25 11:23:42;;;;;;;60.20;37.08;;;;;;;4.87;68.45;101028.69;5025884;28;20132;-82
2022/01/25 11:26:12;;;;;;;57.33;36.20;;;;;;;4.84;68.47;101033.19;5026663;28;20136;-80
2022/01/25 11:28:41;;;;;;;62.08;35.70;;;;;;;4.83;68.65;101028.88;5030461;28;20086;-77
2022/01/25 11:31:12;;;;;;;68.88;37.20;;;;;;;4.84;68.70;101026.16;5019271;28;20128;-72
2022/01/25 11:33:44;;;;;;;63.40;34.78;;;;;;;4.85;68.82;101027.06;5030094;28;20055;-76
2022/01/25 11:36:11;;;;;;;59.55;31.02;;;;;;;4.90;68.81;101027.75;5028982;28;20069;-76
2022/01/25 11:38:44;;;;;;;60.22;38.08;;;;;;;4.90;68.76;101032.97;5045020;28;20107;-78
2022/01/25 11:41:13;;;;;;;65.25;37.38;;;;;;;4.83;68.65;101026.25;5045740;28;20061;-80
2022/01/25 11:43:43;;;;;;;56.33;36.97;;;;;;;4.78;69.00;101029.88;5046968;28;20045;-76
2022/01/25 11:46:11;;;;;;;64.70;38.60;;;;;;;4.82;68.87;101024.53;5045960;28;20128;-78
2022/01/25 11:48:44;;;;;;;65.38;43.65;;;;;;;4.77;69.16;101028.19;5043680;28;20131;-74
2022/01/25 11:51:18;;;;;;;75.40;40.45;;;;;;;4.85;68.63;101022.66;5047355;28;20129;-78
2022/01/25 11:53:49;;;;;;;60.83;36.05;;;;;;;4.85;69.21;101021.81;5026014;28;20049;-77
2022/01/25 11:56:18;;;;;;;64.53;38.58;;;;;;;4.83;69.27;101016.63;5044140;28;20095;-80
2022/01/25 11:58:54;;;;;;;64.57;32.88;;;;;;;4.87;69.24;101017.38;5045485;28;20059;-79
2022/01/25 12:01:24;;;;;;;56.40;34.80;;;;;;;4.89;69.08;101020.78;5043541;28;20068;-77
2022/01/25 12:03:52;;;;;;;62.55;31.88;;;;;;;4.92;69.16;101007.59;5047752;28;20118;-83
2022/01/25 12:06:25;;;;;;;57.30;32.45;;;;;;;4.97;69.15;101005.66;5047100;28;20124;-80
2022/01/25 12:09:17;;;;;;;55.53;31.73;;;;;;;5.03;69.18;101000.19;5045518;28;20123;-78
2022/01/25 12:11:47;;;;;;;56.20;32.92;;;;;;;5.02;69.04;101008.94;5045295;28;20102;-73
2022/01/25 12:14:23;;;;;;;61.60;31.92;;;;;;;5.09;68.98;101002.56;5044014;28;20098;-75
2022/01/25 12:16:54;;;;;;;58.30;31.95;;;;;;;5.08;69.01;100995.63;5042604;28;20412;-74
2022/01/25 12:19:30;;;;;;;65.82;33.95;;;;;;;5.05;69.00;100998.34;5046254;28;20045;-77
2022/01/25 12:22:09;;;;;;;61.60;33.85;;;;;;;5.09;69.03;101002.56;5047174;28;20132;-74
2022/01/25 12:24:52;;;;;;;64.85;32.65;;;;;;;5.15;69.12;100994.50;5047615;28;20049;-72
2022/01/25 12:27:24;;;;;;;60.50;28.50;;;;;;;5.16;68.98;100997.94;5042121;28;20109;-80
2022/01/25 12:30:01;;;;;;;48.42;28.88;;;;;;;5.21;68.92;100995.16;5047286;28;20044;-81
2022/01/25 12:32:30;;;;;;;53.60;29.10;;;;;;;5.26;68.75;101003.72;5047822;28;20084;-76
2022/01/25 12:35:10;;;;;;;53.70;28.17;;;;;;;5.23;68.72;100998.59;5048648;28;20052;-77
2022/01/25 12:38:02;;;;;;;61.22;33.47;;;;;;;5.27;68.72;100998.38;5046898;28;20132;-78
2022/01/25 12:40:55;;;;;;;48.72;27.40;;;;;;;5.32;68.58;100999.06;5047638;28;20132;-70